sensor_id;sensor_type;location;lat;lon;timestamp;P1;durP1;ratioP1;P2;durP2;ratioP2
11588;SDS011;5850;51.360;12.362;2023-06-22T00:00:33;9.50;;;8.60;;
11588;SDS011;5850;51.360;12.362;2023-06-22T00:03:01;10.13;;;9.07;;
11588;SDS011;5850;51.360;12.362;2023-06-22T00:05:30;9.93;;;9.00;;
11588;SDS011;5850;51.360;12.362;2023-06-22T00:07:58;9.27;;;8.47;;
11588;SDS011;5850;51.360;12.362;2023-06-22T00:10:29;9.40;;;8.50;;
11588;SDS011;5850;51.360;12.362;2023-06-22T00:12:57;10.47;;;9.47;;
11588;SDS011;5850;51.360;12.362;2023-06-22T00:15:26;10.00;;;9.00;;
11588;SDS011;5850;51.360;12.362;2023-06-22T00:17:54;10.10;;;9.03;;
11588;SDS011;5850;51.360;12.362;2023-06-22T00:20:25;10.33;;;9.33;;
11588;SDS011;5850;51.360;12.362;2023-06-22T00:22:56;11.13;;;9.80;;
11588;SDS011;5850;51.360;12.362;2023-06-22T00:25:25;10.93;;;9.70;;
11588;SDS011;5850;51.360;12.362;2023-06-22T00:27:53;11.03;;;9.77;;
11588;SDS011;5850;51.360;12.362;2023-06-22T00:30:22;10.60;;;9.50;;
11588;SDS011;5850;51.360;12.362;2023-06-22T00:32:50;11.13;;;10.00;;
11588;SDS011;5850;51.360;12.362;2023-06-22T00:35:19;10.83;;;9.73;;
11588;SDS011;5850;51.360;12.362;2023-06-22T00:37:47;10.73;;;9.67;;
11588;SDS011;5850;51.360;12.362;2023-06-22T00:40:17;11.10;;;9.97;;
11588;SDS011;5850;51.360;12.362;2023-06-22T00:42:47;11.07;;;9.80;;
11588;SDS011;5850;51.360;12.362;2023-06-22T00:45:16;15.13;;;9.70;;
11588;SDS011;5850;51.360;12.362;2023-06-22T00:47:44;11.57;;;9.40;;
11588;SDS011;5850;51.360;12.362;2023-06-22T00:50:14;12.93;;;9.77;;
11588;SDS011;5850;51.360;12.362;2023-06-22T00:52:50;9.93;;;8.93;;
11588;SDS011;5850;51.360;12.362;2023-06-22T00:55:20;11.63;;;10.07;;
11588;SDS011;5850;51.360;12.362;2023-06-22T00:57:49;10.63;;;9.60;;
11588;SDS011;5850;51.360;12.362;2023-06-22T01:00:23;11.40;;;9.40;;
11588;SDS011;5850;51.360;12.362;2023-06-22T01:02:53;11.27;;;9.87;;
11588;SDS011;5850;51.360;12.362;2023-06-22T01:05:22;11.33;;;9.93;;
11588;SDS011;5850;51.360;12.362;2023-06-22T01:10:40;10.30;;;9.30;;
11588;SDS011;5850;51.360;12.362;2023-06-22T01:16:26;10.27;;;9.30;;
11588;SDS011;5850;51.360;12.362;2023-06-22T01:19:09;11.90;;;9.80;;
11588;SDS011;5850;51.360;12.362;2023-06-22T01:22:02;11.27;;;10.07;;
11588;SDS011;5850;51.360;12.362;2023-06-22T01:24:45;10.67;;;9.57;;
11588;SDS011;5850;51.360;12.362;2023-06-22T01:30:07;10.77;;;9.67;;
11588;SDS011;5850;51.360;12.362;2023-06-22T01:32:37;10.50;;;9.47;;
11588;SDS011;5850;51.360;12.362;2023-06-22T01:35:07;11.17;;;10.07;;
11588;SDS011;5850;51.360;12.362;2023-06-22T01:37:36;11.03;;;9.90;;
11588;SDS011;5850;51.360;12.362;2023-06-22T01:40:05;11.73;;;10.53;;
11588;SDS011;5850;51.360;12.362;2023-06-22T01:42:36;11.07;;;9.80;;
11588;SDS011;5850;51.360;12.362;2023-06-22T01:45:05;12.00;;;9.77;;
11588;SDS011;5850;51.360;12.362;2023-06-22T01:47:34;10.40;;;9.40;;
11588;SDS011;5850;51.360;12.362;2023-06-22T01:50:03;11.43;;;9.90;;
11588;SDS011;5850;51.360;12.362;2023-06-22T01:52:32;12.50;;;10.83;;
11588;SDS011;5850;51.360;12.362;2023-06-22T01:55:01;13.53;;;9.87;;
11588;SDS011;5850;51.360;12.362;2023-06-22T01:57:30;11.43;;;10.20;;
11588;SDS011;5850;51.360;12.362;2023-06-22T02:00:03;11.57;;;10.47;;
11588;SDS011;5850;51.360;12.362;2023-06-22T02:02:43;11.27;;;10.17;;
11588;SDS011;5850;51.360;12.362;2023-06-22T02:05:28;11.17;;;10.13;;
11588;SDS011;5850;51.360;12.362;2023-06-22T02:08:02;11.03;;;9.93;;
11588;SDS011;5850;51.360;12.362;2023-06-22T02:10:37;11.37;;;10.17;;
11588;SDS011;5850;51.360;12.362;2023-06-22T02:13:10;12.03;;;10.83;;
11588;SDS011;5850;51.360;12.362;2023-06-22T02:15:39;11.03;;;9.87;;
11588;SDS011;5850;51.360;12.362;2023-06-22T02:18:07;10.40;;;9.40;;
11588;SDS011;5850;51.360;12.362;2023-06-22T02:20:36;11.03;;;9.83;;
11588;SDS011;5850;51.360;12.362;2023-06-22T02:23:06;11.03;;;9.93;;
11588;SDS011;5850;51.360;12.362;2023-06-22T02:25:34;11.67;;;10.57;;
11588;SDS011;5850;51.360;12.362;2023-06-22T02:28:03;11.40;;;10.30;;
11588;SDS011;5850;51.360;12.362;2023-06-22T02:30:31;10.30;;;9.33;;
11588;SDS011;5850;51.360;12.362;2023-06-22T02:32:59;11.87;;;10.60;;
11588;SDS011;5850;51.360;12.362;2023-06-22T02:35:28;13.90;;;12.37;;
11588;SDS011;5850;51.360;12.362;2023-06-22T02:37:58;13.10;;;11.80;;
11588;SDS011;5850;51.360;12.362;2023-06-22T02:40:27;13.73;;;12.33;;
11588;SDS011;5850;51.360;12.362;2023-06-22T02:42:57;12.00;;;10.80;;
11588;SDS011;5850;51.360;12.362;2023-06-22T02:45:28;11.63;;;10.53;;
11588;SDS011;5850;51.360;12.362;2023-06-22T02:47:57;12.17;;;10.37;;
11588;SDS011;5850;51.360;12.362;2023-06-22T02:50:25;16.93;;;14.00;;
11588;SDS011;5850;51.360;12.362;2023-06-22T02:52:54;12.40;;;11.10;;
11588;SDS011;5850;51.360;12.362;2023-06-22T02:55:22;12.97;;;11.43;;
11588;SDS011;5850;51.360;12.362;2023-06-22T02:57:50;12.70;;;10.90;;
11588;SDS011;5850;51.360;12.362;2023-06-22T03:00:19;14.00;;;12.57;;
11588;SDS011;5850;51.360;12.362;2023-06-22T03:02:48;13.40;;;11.80;;
11588;SDS011;5850;51.360;12.362;2023-06-22T03:05:16;12.13;;;10.90;;
11588;SDS011;5850;51.360;12.362;2023-06-22T03:07:45;11.87;;;10.77;;
11588;SDS011;5850;51.360;12.362;2023-06-22T03:10:13;12.77;;;11.00;;
11588;SDS011;5850;51.360;12.362;2023-06-22T03:12:42;11.07;;;9.97;;
11588;SDS011;5850;51.360;12.362;2023-06-22T03:15:12;11.60;;;10.50;;
11588;SDS011;5850;51.360;12.362;2023-06-22T03:17:40;12.90;;;11.67;;
11588;SDS011;5850;51.360;12.362;2023-06-22T03:20:09;11.97;;;10.67;;
11588;SDS011;5850;51.360;12.362;2023-06-22T03:22:38;14.73;;;13.13;;
11588;SDS011;5850;51.360;12.362;2023-06-22T03:25:07;14.40;;;12.90;;
11588;SDS011;5850;51.360;12.362;2023-06-22T03:27:40;14.13;;;12.83;;
11588;SDS011;5850;51.360;12.362;2023-06-22T03:30:10;14.47;;;13.07;;
11588;SDS011;5850;51.360;12.362;2023-06-22T03:32:39;13.97;;;12.43;;
11588;SDS011;5850;51.360;12.362;2023-06-22T03:35:09;14.27;;;12.53;;
11588;SDS011;5850;51.360;12.362;2023-06-22T03:37:39;15.13;;;13.63;;
11588;SDS011;5850;51.360;12.362;2023-06-22T03:40:07;15.40;;;13.90;;
11588;SDS011;5850;51.360;12.362;2023-06-22T03:42:36;15.47;;;11.87;;
11588;SDS011;5850;51.360;12.362;2023-06-22T03:45:04;13.63;;;12.33;;
11588;SDS011;5850;51.360;12.362;2023-06-22T03:47:33;15.50;;;13.83;;
11588;SDS011;5850;51.360;12.362;2023-06-22T03:50:02;15.70;;;13.20;;
11588;SDS011;5850;51.360;12.362;2023-06-22T03:52:31;15.93;;;13.57;;
11588;SDS011;5850;51.360;12.362;2023-06-22T03:55:00;16.13;;;14.37;;
11588;SDS011;5850;51.360;12.362;2023-06-22T03:57:28;15.33;;;13.37;;
11588;SDS011;5850;51.360;12.362;2023-06-22T03:59:57;14.03;;;12.63;;
11588;SDS011;5850;51.360;12.362;2023-06-22T04:02:25;15.30;;;13.10;;
11588;SDS011;5850;51.360;12.362;2023-06-22T04:04:53;13.07;;;11.77;;
11588;SDS011;5850;51.360;12.362;2023-06-22T04:07:22;12.83;;;11.53;;
11588;SDS011;5850;51.360;12.362;2023-06-22T04:09:50;12.53;;;10.70;;
11588;SDS011;5850;51.360;12.362;2023-06-22T04:12:18;12.50;;;11.30;;
11588;SDS011;5850;51.360;12.362;2023-06-22T04:14:47;12.57;;;10.80;;
11588;SDS011;5850;51.360;12.362;2023-06-22T04:17:15;12.97;;;11.57;;
11588;SDS011;5850;51.360;12.362;2023-06-22T04:19:43;12.23;;;10.93;;
11588;SDS011;5850;51.360;12.362;2023-06-22T04:22:12;12.50;;;10.87;;
11588;SDS011;5850;51.360;12.362;2023-06-22T04:24:40;10.97;;;9.87;;
11588;SDS011;5850;51.360;12.362;2023-06-22T04:27:08;12.83;;;11.47;;
11588;SDS011;5850;51.360;12.362;2023-06-22T04:29:37;15.80;;;13.83;;
11588;SDS011;5850;51.360;12.362;2023-06-22T04:32:15;15.17;;;13.07;;
11588;SDS011;5850;51.360;12.362;2023-06-22T04:34:43;13.07;;;11.80;;
11588;SDS011;5850;51.360;12.362;2023-06-22T04:37:12;13.17;;;11.23;;
11588;SDS011;5850;51.360;12.362;2023-06-22T04:39:42;13.23;;;11.87;;
11588;SDS011;5850;51.360;12.362;2023-06-22T04:42:11;12.67;;;11.33;;
11588;SDS011;5850;51.360;12.362;2023-06-22T04:44:40;12.83;;;11.47;;
11588;SDS011;5850;51.360;12.362;2023-06-22T04:47:08;13.97;;;12.57;;
11588;SDS011;5850;51.360;12.362;2023-06-22T04:49:37;13.27;;;11.80;;
11588;SDS011;5850;51.360;12.362;2023-06-22T04:52:08;13.80;;;11.30;;
11588;SDS011;5850;51.360;12.362;2023-06-22T04:54:38;14.47;;;11.93;;
11588;SDS011;5850;51.360;12.362;2023-06-22T04:57:14;13.00;;;11.70;;
11588;SDS011;5850;51.360;12.362;2023-06-22T04:59:42;13.00;;;11.70;;
11588;SDS011;5850;51.360;12.362;2023-06-22T05:02:11;12.13;;;11.03;;
11588;SDS011;5850;51.360;12.362;2023-06-22T05:04:39;13.07;;;11.70;;
11588;SDS011;5850;51.360;12.362;2023-06-22T05:07:08;12.73;;;11.53;;
11588;SDS011;5850;51.360;12.362;2023-06-22T05:09:36;12.97;;;11.60;;
11588;SDS011;5850;51.360;12.362;2023-06-22T05:12:05;12.33;;;11.07;;
11588;SDS011;5850;51.360;12.362;2023-06-22T05:14:36;12.83;;;11.37;;
11588;SDS011;5850;51.360;12.362;2023-06-22T05:17:04;13.00;;;11.73;;
11588;SDS011;5850;51.360;12.362;2023-06-22T05:19:41;12.83;;;11.60;;
11588;SDS011;5850;51.360;12.362;2023-06-22T05:22:11;14.90;;;13.33;;
11588;SDS011;5850;51.360;12.362;2023-06-22T05:24:39;16.67;;;12.63;;
11588;SDS011;5850;51.360;12.362;2023-06-22T05:27:07;17.13;;;15.03;;
11588;SDS011;5850;51.360;12.362;2023-06-22T05:29:36;15.23;;;13.73;;
11588;SDS011;5850;51.360;12.362;2023-06-22T05:32:05;17.47;;;15.70;;
11588;SDS011;5850;51.360;12.362;2023-06-22T05:34:33;16.83;;;15.13;;
11588;SDS011;5850;51.360;12.362;2023-06-22T05:37:02;16.03;;;14.33;;
11588;SDS011;5850;51.360;12.362;2023-06-22T05:39:30;16.13;;;14.47;;
11588;SDS011;5850;51.360;12.362;2023-06-22T05:41:58;15.23;;;13.67;;
11588;SDS011;5850;51.360;12.362;2023-06-22T05:44:27;16.40;;;14.63;;
11588;SDS011;5850;51.360;12.362;2023-06-22T05:46:55;15.73;;;13.63;;
11588;SDS011;5850;51.360;12.362;2023-06-22T05:49:23;16.93;;;14.07;;
11588;SDS011;5850;51.360;12.362;2023-06-22T05:51:55;17.60;;;14.20;;
11588;SDS011;5850;51.360;12.362;2023-06-22T05:54:24;18.00;;;13.40;;
11588;SDS011;5850;51.360;12.362;2023-06-22T05:56:52;15.90;;;13.60;;
11588;SDS011;5850;51.360;12.362;2023-06-22T05:59:20;16.57;;;13.10;;
11588;SDS011;5850;51.360;12.362;2023-06-22T06:01:48;14.87;;;13.40;;
11588;SDS011;5850;51.360;12.362;2023-06-22T06:04:17;16.03;;;13.80;;
11588;SDS011;5850;51.360;12.362;2023-06-22T06:06:46;13.80;;;12.30;;
11588;SDS011;5850;51.360;12.362;2023-06-22T06:09:15;16.17;;;12.40;;
11588;SDS011;5850;51.360;12.362;2023-06-22T06:11:43;16.90;;;12.30;;
11588;SDS011;5850;51.360;12.362;2023-06-22T06:14:11;14.37;;;10.53;;
11588;SDS011;5850;51.360;12.362;2023-06-22T06:16:39;11.70;;;10.40;;
11588;SDS011;5850;51.360;12.362;2023-06-22T06:19:08;13.87;;;10.23;;
11588;SDS011;5850;51.360;12.362;2023-06-22T06:21:36;12.47;;;10.80;;
11588;SDS011;5850;51.360;12.362;2023-06-22T06:24:04;11.23;;;9.90;;
11588;SDS011;5850;51.360;12.362;2023-06-22T06:26:32;13.53;;;9.37;;
11588;SDS011;5850;51.360;12.362;2023-06-22T06:29:01;9.70;;;8.67;;
11588;SDS011;5850;51.360;12.362;2023-06-22T06:31:30;12.00;;;9.27;;
11588;SDS011;5850;51.360;12.362;2023-06-22T06:33:58;11.83;;;9.37;;
11588;SDS011;5850;51.360;12.362;2023-06-22T06:36:26;9.87;;;8.87;;
11588;SDS011;5850;51.360;12.362;2023-06-22T06:38:54;13.73;;;9.50;;
11588;SDS011;5850;51.360;12.362;2023-06-22T06:41:23;11.13;;;9.70;;
11588;SDS011;5850;51.360;12.362;2023-06-22T06:43:51;11.23;;;8.90;;
11588;SDS011;5850;51.360;12.362;2023-06-22T06:46:19;13.97;;;10.17;;
11588;SDS011;5850;51.360;12.362;2023-06-22T06:48:47;10.97;;;9.17;;
11588;SDS011;5850;51.360;12.362;2023-06-22T06:51:16;11.47;;;10.00;;
11588;SDS011;5850;51.360;12.362;2023-06-22T06:53:44;11.13;;;8.77;;
11588;SDS011;5850;51.360;12.362;2023-06-22T06:56:12;10.63;;;9.60;;
11588;SDS011;5850;51.360;12.362;2023-06-22T06:58:41;12.77;;;9.80;;
11588;SDS011;5850;51.360;12.362;2023-06-22T07:01:11;9.90;;;8.90;;
11588;SDS011;5850;51.360;12.362;2023-06-22T07:03:40;11.13;;;9.87;;
11588;SDS011;5850;51.360;12.362;2023-06-22T07:06:08;10.67;;;9.73;;
11588;SDS011;5850;51.360;12.362;2023-06-22T07:08:37;10.30;;;9.27;;
11588;SDS011;5850;51.360;12.362;2023-06-22T07:11:06;10.63;;;9.53;;
11588;SDS011;5850;51.360;12.362;2023-06-22T07:13:34;11.17;;;9.90;;
11588;SDS011;5850;51.360;12.362;2023-06-22T07:16:02;10.17;;;9.17;;
11588;SDS011;5850;51.360;12.362;2023-06-22T07:18:31;10.00;;;9.07;;
11588;SDS011;5850;51.360;12.362;2023-06-22T07:20:59;10.07;;;9.17;;
11588;SDS011;5850;51.360;12.362;2023-06-22T07:23:29;12.37;;;9.70;;
11588;SDS011;5850;51.360;12.362;2023-06-22T07:25:57;10.80;;;9.70;;
11588;SDS011;5850;51.360;12.362;2023-06-22T07:28:28;12.60;;;9.17;;
11588;SDS011;5850;51.360;12.362;2023-06-22T07:30:57;10.33;;;9.30;;
11588;SDS011;5850;51.360;12.362;2023-06-22T07:33:25;13.47;;;9.37;;
11588;SDS011;5850;51.360;12.362;2023-06-22T07:35:53;9.00;;;8.20;;
11588;SDS011;5850;51.360;12.362;2023-06-22T07:38:21;8.80;;;8.00;;
11588;SDS011;5850;51.360;12.362;2023-06-22T07:40:49;10.38;;;8.75;;
11588;SDS011;5850;51.360;12.362;2023-06-22T07:43:19;10.23;;;9.23;;
11588;SDS011;5850;51.360;12.362;2023-06-22T07:45:49;10.50;;;9.20;;
11588;SDS011;5850;51.360;12.362;2023-06-22T07:48:20;9.50;;;8.50;;
11588;SDS011;5850;51.360;12.362;2023-06-22T07:50:48;9.77;;;8.85;;
11588;SDS011;5850;51.360;12.362;2023-06-22T07:53:16;10.48;;;8.63;;
11588;SDS011;5850;51.360;12.362;2023-06-22T07:55:45;9.80;;;8.90;;
11588;SDS011;5850;51.360;12.362;2023-06-22T07:58:15;9.15;;;8.35;;
11588;SDS011;5850;51.360;12.362;2023-06-22T08:00:45;8.88;;;8.07;;
11588;SDS011;5850;51.360;12.362;2023-06-22T08:03:15;10.05;;;8.80;;
11588;SDS011;5850;51.360;12.362;2023-06-22T08:05:43;10.18;;;8.55;;
11588;SDS011;5850;51.360;12.362;2023-06-22T08:08:12;9.30;;;8.40;;
11588;SDS011;5850;51.360;12.362;2023-06-22T08:10:40;9.40;;;8.38;;
11588;SDS011;5850;51.360;12.362;2023-06-22T08:13:09;9.30;;;8.02;;
11588;SDS011;5850;51.360;12.362;2023-06-22T08:15:38;11.32;;;9.25;;
11588;SDS011;5850;51.360;12.362;2023-06-22T08:18:06;10.00;;;9.07;;
11588;SDS011;5850;51.360;12.362;2023-06-22T08:20:34;10.05;;;9.13;;
11588;SDS011;5850;51.360;12.362;2023-06-22T08:23:03;9.73;;;8.10;;
11588;SDS011;5850;51.360;12.362;2023-06-22T08:25:33;10.20;;;9.20;;
11588;SDS011;5850;51.360;12.362;2023-06-22T08:28:04;8.73;;;7.93;;
11588;SDS011;5850;51.360;12.362;2023-06-22T08:30:33;13.40;;;7.93;;
11588;SDS011;5850;51.360;12.362;2023-06-22T08:33:01;9.40;;;7.47;;
11588;SDS011;5850;51.360;12.362;2023-06-22T08:35:29;8.88;;;7.80;;
11588;SDS011;5850;51.360;12.362;2023-06-22T08:37:58;9.82;;;8.27;;
11588;SDS011;5850;51.360;12.362;2023-06-22T08:40:28;9.00;;;8.10;;
11588;SDS011;5850;51.360;12.362;2023-06-22T08:42:56;9.35;;;8.40;;
11588;SDS011;5850;51.360;12.362;2023-06-22T08:45:24;8.45;;;7.65;;
11588;SDS011;5850;51.360;12.362;2023-06-22T08:47:55;9.52;;;8.45;;
11588;SDS011;5850;51.360;12.362;2023-06-22T08:50:24;9.85;;;8.80;;
11588;SDS011;5850;51.360;12.362;2023-06-22T08:52:53;9.25;;;8.35;;
11588;SDS011;5850;51.360;12.362;2023-06-22T08:55:24;10.88;;;8.43;;
11588;SDS011;5850;51.360;12.362;2023-06-22T08:57:53;9.40;;;8.45;;
11588;SDS011;5850;51.360;12.362;2023-06-22T09:00:21;9.73;;;8.25;;
11588;SDS011;5850;51.360;12.362;2023-06-22T09:02:49;9.93;;;8.15;;
11588;SDS011;5850;51.360;12.362;2023-06-22T09:05:18;10.63;;;7.93;;
11588;SDS011;5850;51.360;12.362;2023-06-22T09:07:48;9.60;;;7.78;;
11588;SDS011;5850;51.360;12.362;2023-06-22T09:10:16;8.18;;;7.47;;
11588;SDS011;5850;51.360;12.362;2023-06-22T09:12:44;8.57;;;7.68;;
11588;SDS011;5850;51.360;12.362;2023-06-22T09:15:13;7.93;;;7.22;;
11588;SDS011;5850;51.360;12.362;2023-06-22T09:17:53;8.95;;;7.78;;
11588;SDS011;5850;51.360;12.362;2023-06-22T09:20:23;8.80;;;7.93;;
11588;SDS011;5850;51.360;12.362;2023-06-22T09:22:52;9.05;;;7.47;;
11588;SDS011;5850;51.360;12.362;2023-06-22T09:25:20;8.00;;;7.25;;
11588;SDS011;5850;51.360;12.362;2023-06-22T09:27:49;8.73;;;7.93;;
11588;SDS011;5850;51.360;12.362;2023-06-22T09:30:18;7.32;;;6.63;;
11588;SDS011;5850;51.360;12.362;2023-06-22T09:32:46;7.50;;;6.40;;
11588;SDS011;5850;51.360;12.362;2023-06-22T09:35:15;7.60;;;6.30;;
11588;SDS011;5850;51.360;12.362;2023-06-22T09:37:43;6.93;;;6.28;;
11588;SDS011;5850;51.360;12.362;2023-06-22T09:40:11;7.47;;;6.78;;
11588;SDS011;5850;51.360;12.362;2023-06-22T09:42:41;7.60;;;6.82;;
11588;SDS011;5850;51.360;12.362;2023-06-22T09:45:10;7.20;;;6.60;;
11588;SDS011;5850;51.360;12.362;2023-06-22T09:47:38;8.63;;;7.72;;
11588;SDS011;5850;51.360;12.362;2023-06-22T09:50:07;9.23;;;7.57;;
11588;SDS011;5850;51.360;12.362;2023-06-22T09:52:36;8.48;;;7.07;;
11588;SDS011;5850;51.360;12.362;2023-06-22T09:55:07;11.73;;;8.10;;
11588;SDS011;5850;51.360;12.362;2023-06-22T09:57:35;8.30;;;7.40;;
11588;SDS011;5850;51.360;12.362;2023-06-22T10:00:03;13.20;;;7.82;;
11588;SDS011;5850;51.360;12.362;2023-06-22T10:02:35;8.73;;;7.43;;
11588;SDS011;5850;51.360;12.362;2023-06-22T10:05:03;8.82;;;7.65;;
11588;SDS011;5850;51.360;12.362;2023-06-22T10:07:32;8.50;;;7.70;;
11588;SDS011;5850;51.360;12.362;2023-06-22T10:10:00;8.68;;;7.85;;
11588;SDS011;5850;51.360;12.362;2023-06-22T10:12:28;8.65;;;7.75;;
11588;SDS011;5850;51.360;12.362;2023-06-22T10:14:57;7.75;;;7.10;;
11588;SDS011;5850;51.360;12.362;2023-06-22T10:17:25;9.35;;;7.03;;
11588;SDS011;5850;51.360;12.362;2023-06-22T10:19:54;7.47;;;6.78;;
11588;SDS011;5850;51.360;12.362;2023-06-22T10:22:22;7.03;;;6.43;;
11588;SDS011;5850;51.360;12.362;2023-06-22T10:24:50;7.57;;;6.82;;
11588;SDS011;5850;51.360;12.362;2023-06-22T10:27:18;7.45;;;6.68;;
11588;SDS011;5850;51.360;12.362;2023-06-22T10:29:47;7.97;;;6.97;;
11588;SDS011;5850;51.360;12.362;2023-06-22T10:32:15;8.30;;;7.55;;
11588;SDS011;5850;51.360;12.362;2023-06-22T10:34:43;8.75;;;6.90;;
11588;SDS011;5850;51.360;12.362;2023-06-22T10:37:11;7.85;;;7.07;;
11588;SDS011;5850;51.360;12.362;2023-06-22T10:39:39;7.57;;;6.88;;
11588;SDS011;5850;51.360;12.362;2023-06-22T10:42:07;8.02;;;7.30;;
11588;SDS011;5850;51.360;12.362;2023-06-22T10:44:35;7.95;;;6.95;;
11588;SDS011;5850;51.360;12.362;2023-06-22T10:47:05;8.45;;;7.53;;
11588;SDS011;5850;51.360;12.362;2023-06-22T10:49:33;7.47;;;6.75;;
11588;SDS011;5850;51.360;12.362;2023-06-22T10:52:08;7.85;;;7.15;;
11588;SDS011;5850;51.360;12.362;2023-06-22T10:54:37;8.02;;;7.25;;
11588;SDS011;5850;51.360;12.362;2023-06-22T10:57:06;7.97;;;7.28;;
11588;SDS011;5850;51.360;12.362;2023-06-22T10:59:34;7.30;;;6.70;;
11588;SDS011;5850;51.360;12.362;2023-06-22T11:02:02;8.80;;;6.78;;
11588;SDS011;5850;51.360;12.362;2023-06-22T11:04:31;6.85;;;6.18;;
11588;SDS011;5850;51.360;12.362;2023-06-22T11:07:00;6.88;;;6.25;;
11588;SDS011;5850;51.360;12.362;2023-06-22T11:09:29;7.63;;;6.90;;
11588;SDS011;5850;51.360;12.362;2023-06-22T11:11:58;6.85;;;6.25;;
11588;SDS011;5850;51.360;12.362;2023-06-22T11:14:27;6.95;;;6.30;;
11588;SDS011;5850;51.360;12.362;2023-06-22T11:16:55;6.18;;;5.68;;
11588;SDS011;5850;51.360;12.362;2023-06-22T11:19:24;6.88;;;6.28;;
11588;SDS011;5850;51.360;12.362;2023-06-22T11:21:52;6.63;;;6.03;;
11588;SDS011;5850;51.360;12.362;2023-06-22T11:24:21;11.05;;;6.68;;
11588;SDS011;5850;51.360;12.362;2023-06-22T11:26:49;6.97;;;6.28;;
11588;SDS011;5850;51.360;12.362;2023-06-22T11:29:17;7.00;;;6.35;;
11588;SDS011;5850;51.360;12.362;2023-06-22T11:32:02;6.90;;;6.20;;
11588;SDS011;5850;51.360;12.362;2023-06-22T11:34:31;6.72;;;6.10;;
11588;SDS011;5850;51.360;12.362;2023-06-22T11:37:00;7.40;;;6.68;;
11588;SDS011;5850;51.360;12.362;2023-06-22T11:39:28;7.13;;;6.45;;
11588;SDS011;5850;51.360;12.362;2023-06-22T11:42:06;10.50;;;6.95;;
11588;SDS011;5850;51.360;12.362;2023-06-22T11:44:35;6.75;;;6.07;;
11588;SDS011;5850;51.360;12.362;2023-06-22T11:47:04;7.10;;;6.50;;
11588;SDS011;5850;51.360;12.362;2023-06-22T11:49:32;8.27;;;7.47;;
11588;SDS011;5850;51.360;12.362;2023-06-22T11:52:01;7.68;;;6.90;;
11588;SDS011;5850;51.360;12.362;2023-06-22T11:54:29;7.72;;;6.95;;
11588;SDS011;5850;51.360;12.362;2023-06-22T11:56:58;8.95;;;6.97;;
11588;SDS011;5850;51.360;12.362;2023-06-22T11:59:27;7.20;;;6.60;;
11588;SDS011;5850;51.360;12.362;2023-06-22T12:01:55;7.60;;;6.90;;
11588;SDS011;5850;51.360;12.362;2023-06-22T12:04:24;7.90;;;7.10;;
11588;SDS011;5850;51.360;12.362;2023-06-22T12:06:52;7.60;;;6.88;;
11588;SDS011;5850;51.360;12.362;2023-06-22T12:09:21;8.27;;;6.90;;
11588;SDS011;5850;51.360;12.362;2023-06-22T12:11:49;7.72;;;6.95;;
11588;SDS011;5850;51.360;12.362;2023-06-22T12:14:17;7.13;;;6.53;;
11588;SDS011;5850;51.360;12.362;2023-06-22T12:16:46;13.02;;;7.63;;
11588;SDS011;5850;51.360;12.362;2023-06-22T12:19:14;6.78;;;6.20;;
11588;SDS011;5850;51.360;12.362;2023-06-22T12:21:42;11.13;;;6.38;;
11588;SDS011;5850;51.360;12.362;2023-06-22T12:24:12;8.00;;;7.15;;
11588;SDS011;5850;51.360;12.362;2023-06-22T12:26:40;8.43;;;7.03;;
11588;SDS011;5850;51.360;12.362;2023-06-22T12:29:09;8.82;;;7.18;;
11588;SDS011;5850;51.360;12.362;2023-06-22T12:31:37;7.95;;;7.13;;
11588;SDS011;5850;51.360;12.362;2023-06-22T12:34:06;8.90;;;6.97;;
11588;SDS011;5850;51.360;12.362;2023-06-22T12:36:34;7.45;;;6.75;;
11588;SDS011;5850;51.360;12.362;2023-06-22T12:39:02;9.02;;;6.68;;
11588;SDS011;5850;51.360;12.362;2023-06-22T12:41:31;7.30;;;6.35;;
11588;SDS011;5850;51.360;12.362;2023-06-22T12:43:59;8.63;;;6.78;;
11588;SDS011;5850;51.360;12.362;2023-06-22T12:46:27;7.93;;;7.13;;
11588;SDS011;5850;51.360;12.362;2023-06-22T12:48:57;8.50;;;6.97;;
11588;SDS011;5850;51.360;12.362;2023-06-22T12:51:27;8.38;;;7.35;;
11588;SDS011;5850;51.360;12.362;2023-06-22T12:53:55;7.25;;;6.55;;
11588;SDS011;5850;51.360;12.362;2023-06-22T12:56:24;7.95;;;6.70;;
11588;SDS011;5850;51.360;12.362;2023-06-22T12:58:52;8.05;;;7.28;;
11588;SDS011;5850;51.360;12.362;2023-06-22T13:01:20;7.82;;;7.13;;
11588;SDS011;5850;51.360;12.362;2023-06-22T13:03:49;7.25;;;6.55;;
11588;SDS011;5850;51.360;12.362;2023-06-22T13:06:17;7.45;;;6.65;;
11588;SDS011;5850;51.360;12.362;2023-06-22T13:08:45;7.38;;;6.47;;
11588;SDS011;5850;51.360;12.362;2023-06-22T13:11:17;8.75;;;7.15;;
11588;SDS011;5850;51.360;12.362;2023-06-22T13:13:45;9.70;;;7.53;;
11588;SDS011;5850;51.360;12.362;2023-06-22T13:16:13;10.15;;;7.80;;
11588;SDS011;5850;51.360;12.362;2023-06-22T13:18:41;8.05;;;7.38;;
11588;SDS011;5850;51.360;12.362;2023-06-22T13:21:10;8.05;;;7.22;;
11588;SDS011;5850;51.360;12.362;2023-06-22T13:23:38;8.00;;;7.30;;
11588;SDS011;5850;51.360;12.362;2023-06-22T13:26:07;8.23;;;7.38;;
11588;SDS011;5850;51.360;12.362;2023-06-22T13:28:35;8.38;;;7.47;;
11588;SDS011;5850;51.360;12.362;2023-06-22T13:31:03;7.57;;;6.82;;
11588;SDS011;5850;51.360;12.362;2023-06-22T13:33:31;8.38;;;7.38;;
11588;SDS011;5850;51.360;12.362;2023-06-22T13:36:00;7.20;;;6.60;;
11588;SDS011;5850;51.360;12.362;2023-06-22T13:38:29;7.93;;;7.22;;
11588;SDS011;5850;51.360;12.362;2023-06-22T13:40:58;9.00;;;7.60;;
11588;SDS011;5850;51.360;12.362;2023-06-22T13:43:27;7.80;;;6.93;;
11588;SDS011;5850;51.360;12.362;2023-06-22T13:45:55;8.20;;;7.35;;
11588;SDS011;5850;51.360;12.362;2023-06-22T13:48:24;8.15;;;7.10;;
11588;SDS011;5850;51.360;12.362;2023-06-22T13:50:54;8.23;;;7.43;;
11588;SDS011;5850;51.360;12.362;2023-06-22T13:53:24;8.23;;;7.22;;
11588;SDS011;5850;51.360;12.362;2023-06-22T13:55:52;8.85;;;7.80;;
11588;SDS011;5850;51.360;12.362;2023-06-22T13:58:20;8.40;;;7.60;;
11588;SDS011;5850;51.360;12.362;2023-06-22T14:00:49;9.63;;;7.45;;
11588;SDS011;5850;51.360;12.362;2023-06-22T14:03:19;8.65;;;7.43;;
11588;SDS011;5850;51.360;12.362;2023-06-22T14:05:47;10.32;;;7.78;;
11588;SDS011;5850;51.360;12.362;2023-06-22T14:08:15;8.63;;;6.95;;
11588;SDS011;5850;51.360;12.362;2023-06-22T14:11:06;9.88;;;7.35;;
11588;SDS011;5850;51.360;12.362;2023-06-22T14:13:34;7.90;;;7.20;;
11588;SDS011;5850;51.360;12.362;2023-06-22T14:16:02;8.18;;;7.40;;
11588;SDS011;5850;51.360;12.362;2023-06-22T14:18:32;10.15;;;7.95;;
11588;SDS011;5850;51.360;12.362;2023-06-22T14:21:00;8.52;;;7.70;;
11588;SDS011;5850;51.360;12.362;2023-06-22T14:23:28;8.45;;;7.55;;
11588;SDS011;5850;51.360;12.362;2023-06-22T14:25:57;8.27;;;7.57;;
11588;SDS011;5850;51.360;12.362;2023-06-22T14:28:25;7.90;;;7.10;;
11588;SDS011;5850;51.360;12.362;2023-06-22T14:30:53;7.88;;;7.07;;
11588;SDS011;5850;51.360;12.362;2023-06-22T14:33:22;11.52;;;7.60;;
11588;SDS011;5850;51.360;12.362;2023-06-22T14:35:50;8.57;;;7.43;;
11588;SDS011;5850;51.360;12.362;2023-06-22T14:38:19;8.90;;;8.00;;
11588;SDS011;5850;51.360;12.362;2023-06-22T14:40:47;8.20;;;7.50;;
11588;SDS011;5850;51.360;12.362;2023-06-22T14:43:35;8.90;;;8.10;;
11588;SDS011;5850;51.360;12.362;2023-06-22T14:46:04;8.52;;;7.68;;
11588;SDS011;5850;51.360;12.362;2023-06-22T14:48:34;8.27;;;7.47;;
11588;SDS011;5850;51.360;12.362;2023-06-22T14:51:03;8.00;;;7.20;;
11588;SDS011;5850;51.360;12.362;2023-06-22T14:53:31;12.43;;;7.68;;
11588;SDS011;5850;51.360;12.362;2023-06-22T14:56:00;8.50;;;7.70;;